Terminal Aerodrome Forecast
Issued by NWS

Home | Current Version | Previous Version | Text Only | Print | Product List | Glossary Off
Versions: 1 2 3 4 5 6 7 8 9 10 11 12

000
FTUS45 KGGW 022329
TAFOLF
TAF
KOLF 022329Z 0300/0324 36011KT P6SM SCT250
     FM030300 VRB05KT P6SM FEW250=

USA.gov is the U.S. government's official web portal to all federal, state and local government web resources and services.